createdAt,value
2019-02-23T00:01:25.474Z,3.20
2019-02-23T00:06:29.035Z,3.20
2019-02-23T00:11:12.388Z,3.10
2019-02-23T00:16:06.547Z,3.00
2019-02-23T00:20:59.049Z,2.90
2019-02-23T00:25:51.782Z,2.80
2019-02-23T00:30:44.460Z,2.70
2019-02-23T00:35:36.862Z,2.80
2019-02-23T00:40:29.472Z,2.80
2019-02-23T00:45:22.122Z,2.70
2019-02-23T00:50:14.977Z,2.60
2019-02-23T00:55:08.272Z,2.50
2019-02-23T01:00:00.798Z,2.50
2019-02-23T01:04:53.591Z,2.50
2019-02-23T01:09:46.124Z,2.50
2019-02-23T01:14:38.408Z,2.40
2019-02-23T01:19:30.914Z,2.40
2019-02-23T01:24:23.576Z,2.40
2019-02-23T01:29:35.245Z,2.30
2019-02-23T01:34:27.739Z,2.30
2019-02-23T01:39:20.009Z,2.40
2019-02-23T01:44:12.745Z,2.40
2019-02-23T01:49:05.141Z,2.40
2019-02-23T01:53:57.845Z,2.40
2019-02-23T01:58:50.392Z,2.60
2019-02-23T02:03:42.929Z,3.20
2019-02-23T02:08:36.453Z,3.80
2019-02-23T02:13:29.145Z,4.30
2019-02-23T02:18:21.856Z,4.80
2019-02-23T02:23:14.386Z,5.00
2019-02-23T02:28:06.692Z,5.20
2019-02-23T02:32:59.128Z,5.30
2019-02-23T02:37:51.568Z,5.30
2019-02-23T02:42:44.062Z,5.10
2019-02-23T02:47:36.432Z,4.90
2019-02-23T02:52:29.106Z,4.60
2019-02-23T02:57:21.496Z,4.20
2019-02-23T03:02:14.090Z,3.90
2019-02-23T03:07:06.529Z,3.60
2019-02-23T03:11:59.357Z,3.50
2019-02-23T03:16:51.393Z,3.50
2019-02-23T03:21:44.162Z,3.50
2019-02-23T03:26:36.805Z,3.50
2019-02-23T03:31:29.410Z,3.60
2019-02-23T03:36:21.922Z,3.70
2019-02-23T03:41:14.168Z,3.90
2019-02-23T03:46:07.018Z,4.10
2019-02-23T03:50:59.725Z,4.10
2019-02-23T03:55:52.632Z,4.10
2019-02-23T04:00:45.180Z,4.00
2019-02-23T04:05:37.481Z,3.70
2019-02-23T04:10:30.058Z,3.60
2019-02-23T04:15:22.537Z,3.50
2019-02-23T04:20:15.171Z,3.40
2019-02-23T04:25:08.739Z,3.30
2019-02-23T04:30:01.267Z,3.50
2019-02-23T04:34:54.181Z,3.40
2019-02-23T04:39:46.702Z,3.50
2019-02-23T04:44:39.266Z,3.40
2019-02-23T04:49:31.412Z,3.30
2019-02-23T04:54:23.984Z,3.40
2019-02-23T04:59:16.545Z,3.50
2019-02-23T05:04:09.302Z,3.50
2019-02-23T05:09:01.923Z,3.40
2019-02-23T05:13:54.768Z,3.20
2019-02-23T05:18:47.086Z,3.10
2019-02-23T05:23:39.169Z,2.90
2019-02-23T05:28:31.757Z,2.80
2019-02-23T05:33:24.298Z,2.60
2019-02-23T05:38:16.755Z,2.40
2019-02-23T05:43:09.194Z,2.50
2019-02-23T05:48:01.862Z,2.50
2019-02-23T05:52:54.731Z,2.50
2019-02-23T05:57:46.794Z,2.80
2019-02-23T06:02:39.585Z,3.10
2019-02-23T06:07:32.045Z,3.30
2019-02-23T06:12:24.784Z,3.30
2019-02-23T06:17:17.553Z,3.30
2019-02-23T06:22:10.266Z,3.40
2019-02-23T06:27:03.104Z,3.40
2019-02-23T06:31:55.720Z,3.40
2019-02-23T06:36:48.564Z,3.50
2019-02-23T06:41:41.161Z,3.50
2019-02-23T06:46:34.266Z,3.50
2019-02-23T06:51:26.629Z,3.50
2019-02-23T06:56:19.185Z,3.60
2019-02-23T07:01:11.684Z,3.80
2019-02-23T07:06:04.088Z,4.30
2019-02-23T07:10:56.517Z,5.40
2019-02-23T07:15:48.865Z,6.40
2019-02-23T07:20:44.581Z,6.80
2019-02-23T07:25:35.360Z,6.10
2019-02-23T07:30:27.753Z,5.60
2019-02-23T07:35:20.410Z,5.90
2019-02-23T07:40:14.753Z,6.90
2019-02-23T07:45:09.149Z,8.30
2019-02-23T07:50:01.297Z,9.80
2019-02-23T07:54:53.861Z,10.70
2019-02-23T07:59:46.168Z,11.90
2019-02-23T08:04:38.577Z,12.20
2019-02-23T08:09:30.976Z,11.90
2019-02-23T08:14:23.665Z,11.90
2019-02-23T08:19:16.302Z,12.20
2019-02-23T08:24:08.800Z,13.00
2019-02-23T08:29:01.371Z,13.80
2019-02-23T08:33:53.724Z,15.00
2019-02-23T08:38:46.150Z,15.00
2019-02-23T08:43:38.488Z,15.30
2019-02-23T08:48:33.464Z,16.00
2019-02-23T08:53:25.960Z,15.70
2019-02-23T08:58:18.416Z,15.60
2019-02-23T09:03:11.304Z,16.30
2019-02-23T09:08:03.829Z,17.00
2019-02-23T09:12:56.416Z,17.20
2019-02-23T09:17:48.716Z,16.40
2019-02-23T09:22:41.326Z,16.00
2019-02-23T09:27:33.933Z,15.30
2019-02-23T09:32:26.953Z,15.40
2019-02-23T09:37:19.670Z,16.80
2019-02-23T09:42:12.348Z,17.80
2019-02-23T09:47:05.010Z,17.80
2019-02-23T09:51:57.449Z,16.90
2019-02-23T09:56:50.123Z,16.50
2019-02-23T10:01:42.297Z,16.80
2019-02-23T10:06:34.416Z,16.80
2019-02-23T10:11:27.084Z,16.20
2019-02-23T10:16:19.754Z,15.30
2019-02-23T10:21:12.444Z,15.60
2019-02-23T10:26:06.711Z,15.20
2019-02-23T10:31:02.360Z,15.10
2019-02-23T10:35:54.677Z,15.80
2019-02-23T10:40:46.947Z,16.60
2019-02-23T10:45:39.743Z,17.20
2019-02-23T10:50:32.153Z,17.00
2019-02-23T10:55:24.638Z,17.60
2019-02-23T11:00:21.931Z,17.90
2019-02-23T11:05:14.705Z,18.00
2019-02-23T11:10:08.569Z,18.30
2019-02-23T11:15:00.805Z,18.20
2019-02-23T11:19:53.369Z,18.30
2019-02-23T11:24:46.005Z,19.30
2019-02-23T11:29:38.574Z,17.90
2019-02-23T11:34:30.954Z,17.00
2019-02-23T11:39:23.617Z,17.10
2019-02-23T11:44:16.122Z,16.10
2019-02-23T11:49:09.072Z,16.00
2019-02-23T11:54:01.409Z,15.50
2019-02-23T11:58:54.121Z,15.40
2019-02-23T12:03:46.739Z,16.10
2019-02-23T12:08:39.086Z,17.20
2019-02-23T12:13:32.899Z,16.70
2019-02-23T12:18:25.024Z,17.70
2019-02-23T12:23:17.713Z,18.00
2019-02-23T12:28:10.220Z,17.60
2019-02-23T12:33:02.889Z,16.50
2019-02-23T12:37:55.813Z,16.90
2019-02-23T12:42:50.157Z,17.00
2019-02-23T12:47:42.886Z,16.30
2019-02-23T12:52:35.561Z,16.10
2019-02-23T12:57:28.333Z,15.60
2019-02-23T13:02:21.001Z,15.00
2019-02-23T13:07:13.452Z,15.10
2019-02-23T13:12:14.426Z,15.10
2019-02-23T13:17:15.703Z,14.30
2019-02-23T13:22:11.494Z,13.90
2019-02-23T13:27:07.024Z,13.70
2019-02-23T13:32:17.861Z,13.10
2019-02-23T13:37:13.265Z,12.70
2019-02-23T13:42:14.525Z,12.60
2019-02-23T13:47:13.017Z,13.10
2019-02-23T13:52:11.290Z,12.90
2019-02-23T13:57:21.726Z,12.70
2019-02-23T14:02:46.907Z,12.40
2019-02-23T14:07:47.901Z,12.50
2019-02-23T14:12:49.828Z,12.70
2019-02-23T14:17:56.957Z,12.60
2019-02-23T14:23:09.005Z,12.50
2019-02-23T14:28:10.094Z,12.40
2019-02-23T14:33:11.561Z,12.40
2019-02-23T14:38:15.744Z,12.50
2019-02-23T14:43:20.212Z,12.60
2019-02-23T14:48:41.137Z,12.70
2019-02-23T14:53:39.721Z,12.60
2019-02-23T14:58:44.370Z,12.40
2019-02-23T15:04:09.289Z,12.40
2019-02-23T15:09:19.909Z,12.40
2019-02-23T15:14:36.577Z,12.20
2019-02-23T15:19:49.664Z,12.10
2019-02-23T15:24:51.069Z,12.20
2019-02-23T15:29:55.731Z,12.10
2019-02-23T15:35:10.761Z,12.00
2019-02-23T15:40:29.983Z,11.90
2019-02-23T15:45:41.835Z,11.80
2019-02-23T15:50:34.223Z,11.70
2019-02-23T15:55:29.847Z,11.60
2019-02-23T16:00:21.281Z,11.40
2019-02-23T16:05:13.947Z,11.20
2019-02-23T16:10:06.776Z,11.00
2019-02-23T16:14:59.101Z,10.90
2019-02-23T16:19:51.529Z,10.70
2019-02-23T16:24:44.357Z,10.60
2019-02-23T16:29:38.877Z,10.40
2019-02-23T16:34:30.697Z,10.30
2019-02-23T16:39:23.421Z,10.10
2019-02-23T16:44:15.906Z,10.00
2019-02-23T16:49:09.251Z,9.80
2019-02-23T16:54:01.741Z,9.70
2019-02-23T16:58:54.269Z,9.60
2019-02-23T17:03:46.959Z,9.50
2019-02-23T17:08:39.421Z,9.40
2019-02-23T17:13:31.981Z,9.20
2019-02-23T17:18:24.701Z,9.10
2019-02-23T17:23:17.110Z,9.00
2019-02-23T17:28:09.694Z,8.80
2019-02-23T17:33:02.300Z,8.70
2019-02-23T17:37:55.027Z,8.60
2019-02-23T17:42:48.174Z,8.40
2019-02-23T17:47:40.772Z,8.30
2019-02-23T17:52:33.285Z,8.10
2019-02-23T17:57:25.485Z,8.00
2019-02-23T18:02:19.136Z,7.90
2019-02-23T18:07:11.414Z,7.90
2019-02-23T18:12:03.708Z,7.70
2019-02-23T18:16:56.146Z,7.60
2019-02-23T18:21:48.821Z,7.40
2019-02-23T18:26:41.372Z,7.40
2019-02-23T18:31:34.136Z,7.30
2019-02-23T18:36:26.865Z,7.20
2019-02-23T18:41:19.201Z,7.00
2019-02-23T18:46:11.585Z,6.90
2019-02-23T18:51:03.877Z,6.70
2019-02-23T18:55:56.314Z,6.60
2019-02-23T19:00:48.901Z,6.60
2019-02-23T19:05:49.565Z,6.50
2019-02-23T19:10:36.040Z,6.30
2019-02-23T19:15:29.457Z,6.20
2019-02-23T19:20:21.670Z,6.10
2019-02-23T19:25:13.913Z,6.00
2019-02-23T19:30:12.013Z,5.80
2019-02-23T19:35:05.946Z,5.70
2019-02-23T19:39:58.685Z,5.50
2019-02-23T19:44:51.308Z,5.30
2019-02-23T19:49:43.676Z,5.10
2019-02-23T19:54:35.744Z,5.00
2019-02-23T19:59:28.183Z,4.80
2019-02-23T20:04:20.680Z,4.80
2019-02-23T20:09:13.248Z,4.70
2019-02-23T20:14:05.629Z,4.60
2019-02-23T20:18:58.365Z,4.40
2019-02-23T20:23:50.638Z,4.30
2019-02-23T20:28:43.253Z,4.20
2019-02-23T20:33:36.046Z,4.10
2019-02-23T20:38:28.716Z,4.10
2019-02-23T20:43:20.963Z,4.00
2019-02-23T20:48:15.436Z,3.90
2019-02-23T20:53:07.985Z,3.80
2019-02-23T20:58:00.416Z,3.70
2019-02-23T21:02:53.180Z,3.60
2019-02-23T21:07:45.610Z,3.40
2019-02-23T21:12:38.467Z,3.20
2019-02-23T21:17:31.009Z,3.20
2019-02-23T21:22:23.677Z,3.00
2019-02-23T21:27:16.054Z,2.90
2019-02-23T21:32:08.320Z,2.70
2019-02-23T21:37:00.872Z,2.60
2019-02-23T21:41:53.506Z,2.60
2019-02-23T21:46:46.358Z,2.50
2019-02-23T21:51:38.881Z,2.40
2019-02-23T21:56:31.565Z,2.30
2019-02-23T22:01:24.370Z,2.20
2019-02-23T22:06:16.851Z,2.10
2019-02-23T22:11:09.509Z,2.00
2019-02-23T22:16:04.257Z,1.90
2019-02-23T22:20:56.292Z,1.90
2019-02-23T22:25:49.078Z,1.80
2019-02-23T22:30:41.760Z,1.70
2019-02-23T22:35:34.210Z,1.70
2019-02-23T22:40:26.981Z,1.60
2019-02-23T22:45:19.412Z,1.60
2019-02-23T22:50:13.208Z,1.50
2019-02-23T22:55:06.197Z,1.40
2019-02-23T22:59:58.585Z,1.30
2019-02-23T23:04:51.102Z,1.30
2019-02-23T23:09:43.444Z,1.20
2019-02-23T23:14:35.892Z,1.20
2019-02-23T23:19:28.165Z,1.10
2019-02-23T23:24:20.685Z,1.00
2019-02-23T23:29:13.054Z,1.00
2019-02-23T23:34:05.800Z,1.00
2019-02-23T23:38:58.179Z,0.90
2019-02-23T23:43:50.816Z,0.80
2019-02-23T23:48:43.425Z,0.80
2019-02-23T23:53:36.547Z,0.70
2019-02-23T23:58:29.189Z,0.70
